Time;durP1;ratioP1;P1;durP2;ratioP2;P2;SDS_P1;SDS_P2;PMS_P1;PMS_P2;Temp;Humidity;BMP_temperature;BMP_pressure;BME280_temperature;BME280_humidity;BME280_pressure;Samples;Min_cycle;Max_cycle;Signal;HPM_P1;HPM_P2
2023/01/08 00:00:52;;;;;;;36.55;21.38;;;;;;;10.41;100.00;100164.09;5134918;27;20028;-71
2023/01/08 00:03:18;;;;;;;36.90;21.77;;;;;;;10.50;100.00;100167.38;5124957;27;20055;-71
2023/01/08 00:05:43;;;;;;;32.95;20.17;;;;;;;10.46;100.00;100158.91;5127338;27;20055;-71
2023/01/08 00:08:09;;;;;;;36.65;20.58;;;;;;;10.52;100.00;100141.06;5113374;27;20031;-71
2023/01/08 00:10:36;;;;;;;31.63;18.48;;;;;;;10.46;100.00;100147.28;5120698;28;20030;-71
2023/01/08 00:13:01;;;;;;;32.22;18.27;;;;;;;10.52;100.00;100135.69;5098411;28;20066;-70
2023/01/08 00:15:28;;;;;;;30.50;18.95;;;;;;;10.54;100.00;100137.13;5126364;28;20030;-70
2023/01/08 00:17:54;;;;;;;33.40;18.95;;;;;;;10.53;100.00;100131.97;5107513;28;20023;-70
2023/01/08 00:20:22;;;;;;;28.10;17.45;;;;;;;10.35;100.00;100109.28;5098426;28;20437;-70
2023/01/08 00:22:48;;;;;;;27.08;17.73;;;;;;;10.45;100.00;100118.75;5121334;28;20454;-70
2023/01/08 00:25:14;;;;;;;27.70;17.50;;;;;;;10.31;100.00;100091.94;5113441;28;20058;-70
2023/01/08 00:27:40;;;;;;;28.10;17.67;;;;;;;10.48;100.00;100104.88;5117438;28;20100;-70
2023/01/08 00:30:05;;;;;;;27.15;17.63;;;;;;;10.39;100.00;100095.41;5113423;28;20557;-70
2023/01/08 00:32:31;;;;;;;28.63;18.70;;;;;;;10.47;100.00;100106.75;5121826;28;20558;-70
2023/01/08 00:34:56;;;;;;;27.77;17.65;;;;;;;10.48;100.00;100092.25;5116500;28;20051;-70
2023/01/08 00:37:22;;;;;;;27.27;17.95;;;;;;;10.39;100.00;100104.28;5107079;28;20389;-72
2023/01/08 00:39:47;;;;;;;27.15;17.15;;;;;;;10.48;100.00;100099.50;5108627;28;20039;-70
2023/01/08 00:42:12;;;;;;;28.30;17.95;;;;;;;10.56;100.00;100091.16;5097631;28;20027;-71
2023/01/08 00:44:38;;;;;;;25.20;16.42;;;;;;;10.54;100.00;100095.94;5102884;28;20032;-70
2023/01/08 00:47:03;;;;;;;23.52;16.02;;;;;;;10.47;100.00;100076.34;5097544;28;20114;-70
2023/01/08 00:49:29;;;;;;;22.02;14.77;;;;;;;10.45;100.00;100076.53;5126058;28;20033;-70
2023/01/08 00:51:55;;;;;;;23.80;15.63;;;;;;;10.57;100.00;100084.75;5107965;28;20042;-70
2023/01/08 00:54:20;;;;;;;24.02;16.73;;;;;;;10.50;100.00;100078.59;5097525;28;20118;-70
2023/01/08 00:56:45;;;;;;;21.65;15.75;;;;;;;10.30;100.00;100047.25;5120382;28;20028;-71
2023/01/08 00:59:11;;;;;;;23.05;16.80;;;;;;;10.49;100.00;100067.00;5113380;28;20031;-70
2023/01/08 01:01:37;;;;;;;24.70;16.70;;;;;;;10.30;100.00;100055.34;5109003;28;20035;-70
2023/01/08 01:04:03;;;;;;;21.38;15.52;;;;;;;10.49;100.00;100066.16;5137904;28;20039;-70
2023/01/08 01:06:29;;;;;;;20.67;14.40;;;;;;;10.46;100.00;100063.91;5122383;27;20040;-70
2023/01/08 01:08:55;;;;;;;20.30;15.10;;;;;;;10.48;100.00;100067.22;5119365;27;20107;-70
2023/01/08 01:11:26;;;;;;;20.85;14.45;;;;;;;10.46;100.00;100069.28;5128283;27;20039;-70
2023/01/08 01:13:53;;;;;;;19.92;14.20;;;;;;;10.48;100.00;100065.34;5111067;28;20031;-70
2023/01/08 01:16:19;;;;;;;20.30;14.25;;;;;;;10.38;100.00;100058.81;5136098;27;20035;-71
2023/01/08 01:18:45;;;;;;;18.80;13.57;;;;;;;10.41;100.00;100058.38;5124098;27;20039;-70
2023/01/08 01:21:28;;;;;;;19.13;13.00;;;;;;;10.39;100.00;100037.06;5135200;27;20024;-70
2023/01/08 01:23:57;;;;;;;18.63;12.90;;;;;;;10.47;100.00;100052.13;5114622;27;20030;-70
2023/01/08 01:26:24;;;;;;;18.23;11.02;;;;;;;10.30;100.00;100052.66;5125702;27;20053;-70
2023/01/08 01:28:51;;;;;;;17.27;10.77;;;;;;;10.40;100.00;100045.94;5118834;27;20039;-70
2023/01/08 01:31:18;;;;;;;17.38;10.80;;;;;;;10.37;100.00;100049.91;5108101;27;20075;-70
2023/01/08 01:33:44;;;;;;;14.02;10.02;;;;;;;10.34;100.00;100051.16;5112403;28;20035;-70
2023/01/08 01:36:11;;;;;;;16.52;9.95;;;;;;;10.27;100.00;100039.63;5116004;27;20110;-70
2023/01/08 01:38:37;;;;;;;15.57;9.45;;;;;;;10.34;100.00;100037.72;5104546;27;20437;-70
2023/01/08 01:41:02;;;;;;;13.68;9.07;;;;;;;10.24;100.00;100025.75;5135552;27;20097;-70
2023/01/08 01:43:40;;;;;;;11.93;8.35;;;;;;;10.30;100.00;100035.69;5110293;27;20015;-70
2023/01/08 01:46:15;;;;;;;12.52;8.63;;;;;;;10.35;100.00;100033.97;5127419;27;20027;-71
2023/01/08 01:48:41;;;;;;;12.52;8.30;;;;;;;10.38;100.00;100035.41;5137669;27;20027;-70
2023/01/08 01:51:07;;;;;;;16.35;7.90;;;;;;;10.35;100.00;100017.03;5107400;27;20049;-70
2023/01/08 01:53:34;;;;;;;11.88;7.68;;;;;;;10.29;100.00;100012.50;5093364;28;20028;-70
2023/01/08 01:56:01;;;;;;;11.75;7.80;;;;;;;10.27;100.00;100010.06;5123313;27;20616;-69
2023/01/08 01:58:29;;;;;;;9.65;5.93;;;;;;;10.17;100.00;99998.91;5104393;28;20088;-70
2023/01/08 02:00:56;;;;;;;13.35;6.93;;;;;;;10.26;100.00;100016.44;5118647;27;20023;-70
2023/01/08 02:03:25;;;;;;;15.32;7.88;;;;;;;10.25;100.00;100025.53;5107833;27;20047;-70
2023/01/08 02:06:01;;;;;;;14.57;7.15;;;;;;;10.26;100.00;100021.81;5111921;28;20058;-70
2023/01/08 02:08:53;;;;;;;12.63;7.07;;;;;;;10.27;100.00;100004.66;5136991;27;20417;-70
2023/01/08 02:11:28;;;;;;;17.58;7.25;;;;;;;9.96;100.00;99978.53;5096119;27;20039;-71
2023/01/08 02:14:12;;;;;;;16.40;7.07;;;;;;;10.06;100.00;99984.28;5110878;28;20078;-70
2023/01/08 02:16:45;;;;;;;11.35;7.20;;;;;;;10.09;100.00;99969.59;5118518;27;20087;-70
2023/01/08 02:19:35;;;;;;;15.57;7.50;;;;;;;10.17;100.00;99974.72;5107062;27;20026;-70
2023/01/08 02:22:19;;;;;;;16.33;6.97;;;;;;;10.23;100.00;99975.69;5127772;27;20051;-72
2023/01/08 02:24:50;;;;;;;18.27;7.57;;;;;;;10.21;100.00;99977.78;5119143;27;20045;-70
2023/01/08 02:27:19;;;;;;;11.85;6.50;;;;;;;10.09;100.00;99964.22;5126394;27;20070;-70
2023/01/08 02:29:46;;;;;;;13.68;6.78;;;;;;;10.05;100.00;99969.19;5130402;27;20435;-70
2023/01/08 02:32:11;;;;;;;17.00;6.95;;;;;;;10.15;100.00;99971.41;5098689;27;20440;-70
2023/01/08 02:34:37;;;;;;;11.77;6.38;;;;;;;10.11;100.00;99964.84;5105198;27;20054;-70
2023/01/08 02:37:03;;;;;;;12.45;6.65;;;;;;;10.04;100.00;99945.25;5136467;27;20039;-70
2023/01/08 02:39:28;;;;;;;11.77;6.40;;;;;;;10.15;100.00;99965.22;5109362;27;20027;-70
2023/01/08 02:42:05;;;;;;;11.98;7.00;;;;;;;10.11;100.00;99951.38;5111482;28;20035;-70
2023/01/08 02:44:53;;;;;;;12.95;6.35;;;;;;;10.13;100.00;99951.97;5136919;27;20027;-71
2023/01/08 02:47:50;;;;;;;14.85;6.45;;;;;;;10.11;100.00;99937.94;5112289;27;20038;-73
2023/01/08 02:50:36;;;;;;;15.75;6.60;;;;;;;10.13;100.00;99943.91;5102664;28;20027;-70
2023/01/08 02:53:14;;;;;;;14.52;6.43;;;;;;;10.12;100.00;99931.53;5108520;27;20084;-70
2023/01/08 02:55:41;;;;;;;14.32;6.63;;;;;;;10.17;100.00;99936.25;5112656;28;20031;-71
2023/01/08 02:58:07;;;;;;;11.88;6.60;;;;;;;10.10;100.00;99922.88;5133190;27;20115;-70
2023/01/08 03:00:34;;;;;;;16.67;7.10;;;;;;;10.11;100.00;99925.31;5104807;28;20080;-70
2023/01/08 03:03:10;;;;;;;13.35;6.82;;;;;;;10.11;100.00;99927.19;5136038;27;20047;-69
2023/01/08 03:05:39;;;;;;;13.95;7.40;;;;;;;10.09;100.00;99929.25;5129025;27;20027;-70
2023/01/08 03:08:04;;;;;;;13.00;6.18;;;;;;;9.86;100.00;99901.09;5126994;27;20027;-70
2023/01/08 03:10:31;;;;;;;17.83;7.68;;;;;;;10.09;100.00;99924.72;5136220;27;20063;-70
2023/01/08 03:13:25;;;;;;;14.98;7.75;;;;;;;10.07;100.00;99910.69;5104840;27;20027;-70
2023/01/08 03:15:57;;;;;;;16.70;7.90;;;;;;;10.04;100.00;99903.06;5126536;27;20502;-71
2023/01/08 03:18:30;;;;;;;15.25;8.25;;;;;;;10.01;100.00;99897.28;5135449;27;20061;-70
2023/01/08 03:20:56;;;;;;;17.15;8.50;;;;;;;10.05;100.00;99902.00;5122707;27;20384;-70
2023/01/08 03:23:23;;;;;;;19.50;7.80;;;;;;;9.85;100.00;99861.84;5114235;28;20100;-70
2023/01/08 03:25:49;;;;;;;16.25;8.25;;;;;;;9.88;100.00;99893.66;5130188;27;20038;-71
2023/01/08 03:28:21;;;;;;;15.50;9.20;;;;;;;9.95;100.00;99890.09;5086565;28;20114;-70
2023/01/08 03:30:48;;;;;;;22.70;8.52;;;;;;;9.99;100.00;99893.97;5134255;27;20048;-70
2023/01/08 03:33:15;;;;;;;19.10;8.70;;;;;;;9.86;100.00;99876.09;5106734;27;20027;-70
2023/01/08 03:35:44;;;;;;;22.15;8.73;;;;;;;9.99;100.00;99884.06;5130297;27;20028;-70
2023/01/08 03:38:15;;;;;;;24.38;9.73;;;;;;;9.94;100.00;99891.16;5132570;27;20027;-70
2023/01/08 03:40:46;;;;;;;17.85;8.63;;;;;;;9.82;100.00;99880.25;5122952;27;20026;-70
2023/01/08 03:43:11;;;;;;;19.77;8.20;;;;;;;9.87;100.00;99897.38;5135026;27;20023;-70
2023/01/08 03:45:45;;;;;;;14.63;7.95;;;;;;;9.72;100.00;99863.78;5110654;27;20066;-70
2023/01/08 03:48:11;;;;;;;18.75;7.85;;;;;;;9.82;100.00;99893.69;5107910;28;20027;-70
2023/01/08 03:50:36;;;;;;;13.40;8.15;;;;;;;9.82;100.00;99886.44;5100880;27;20054;-70
2023/01/08 03:53:02;;;;;;;17.52;8.40;;;;;;;9.43;100.00;99825.72;5121383;27;20370;-70
2023/01/08 03:55:27;;;;;;;16.52;7.88;;;;;;;9.77;100.00;99863.97;5113580;28;20061;-70
2023/01/08 03:57:52;;;;;;;18.17;8.02;;;;;;;9.63;100.00;99852.47;5110651;27;20504;-70
2023/01/08 04:00:18;;;;;;;18.15;8.25;;;;;;;9.59;100.00;99835.97;5123824;27;20095;-70
2023/01/08 04:02:43;;;;;;;17.02;8.50;;;;;;;9.81;100.00;99851.75;5136011;27;20051;-70
2023/01/08 04:05:09;;;;;;;23.05;8.05;;;;;;;9.77;100.00;99851.38;5105833;27;20027;-70
2023/01/08 04:07:34;;;;;;;18.55;8.18;;;;;;;9.73;100.00;99852.81;5113099;28;20036;-70
2023/01/08 04:10:00;;;;;;;17.52;7.93;;;;;;;9.70;100.00;99847.91;5112794;27;20049;-70
2023/01/08 04:12:25;;;;;;;16.02;7.88;;;;;;;9.72;100.00;99829.69;5123649;28;20051;-70
2023/01/08 04:14:51;;;;;;;15.98;7.80;;;;;;;9.73;100.00;99834.00;5136010;27;20141;-70
2023/01/08 04:17:16;;;;;;;16.83;7.65;;;;;;;9.79;100.00;99835.84;5124257;28;20038;-70
2023/01/08 04:19:41;;;;;;;19.85;7.80;;;;;;;9.73;100.00;99820.56;5130130;28;20042;-70
2023/01/08 04:22:09;;;;;;;14.23;7.53;;;;;;;9.68;100.00;99839.22;5131318;28;20039;-70
2023/01/08 04:24:35;;;;;;;15.60;7.53;;;;;;;9.75;100.00;99829.25;5087122;28;20023;-70
2023/01/08 04:27:00;;;;;;;16.00;7.75;;;;;;;9.77;100.00;99826.38;5097049;28;20035;-70
2023/01/08 04:29:25;;;;;;;14.32;7.30;;;;;;;9.74;100.00;99832.16;5106831;28;20052;-70
2023/01/08 04:31:51;;;;;;;15.10;7.47;;;;;;;9.69;100.00;99843.53;5110572;28;20032;-70
2023/01/08 04:34:16;;;;;;;19.70;7.55;;;;;;;9.56;100.00;99811.41;5114742;28;20417;-70
2023/01/08 04:36:42;;;;;;;16.00;7.82;;;;;;;9.65;100.00;99802.88;5086983;28;20110;-70
2023/01/08 04:39:09;;;;;;;15.23;7.25;;;;;;;9.79;100.00;99824.25;5134830;28;20031;-70
2023/01/08 04:41:35;;;;;;;20.23;7.60;;;;;;;9.65;100.00;99797.50;5103315;28;20076;-72
2023/01/08 04:44:00;;;;;;;14.18;7.05;;;;;;;9.79;100.00;99821.56;5117455;27;20023;-70
2023/01/08 04:46:25;;;;;;;17.35;7.00;;;;;;;9.75;100.00;99823.88;5127730;27;20046;-70
2023/01/08 04:48:51;;;;;;;14.90;6.50;;;;;;;9.84;100.00;99805.63;5104745;27;20110;-69
2023/01/08 04:51:16;;;;;;;15.05;7.20;;;;;;;9.60;100.00;99781.22;5129245;27;20054;-70
2023/01/08 04:53:42;;;;;;;17.15;7.50;;;;;;;9.66;100.00;99817.13;5115775;28;20035;-70
2023/01/08 04:56:09;;;;;;;15.07;6.90;;;;;;;9.73;100.00;99822.44;5117626;27;20155;-70
2023/01/08 04:58:35;;;;;;;16.23;6.78;;;;;;;9.64;100.00;99820.03;5125975;27;20039;-70
2023/01/08 05:01:10;;;;;;;15.25;6.60;;;;;;;9.65;100.00;99819.00;5091331;27;20114;-70
2023/01/08 05:03:35;;;;;;;13.82;6.65;;;;;;;9.74;100.00;99816.06;5134596;27;20078;-69
2023/01/08 05:06:01;;;;;;;18.30;6.55;;;;;;;9.71;100.00;99828.06;5117496;27;20063;-69
2023/01/08 05:08:26;;;;;;;17.20;6.28;;;;;;;9.62;100.00;99829.34;5072581;28;20429;-70
2023/01/08 05:10:51;;;;;;;14.65;6.57;;;;;;;9.57;100.00;99829.16;5138802;27;20039;-69
2023/01/08 05:13:17;;;;;;;12.30;6.00;;;;;;;9.58;100.00;99834.31;5095197;27;20027;-70
2023/01/08 05:15:45;;;;;;;14.82;6.35;;;;;;;9.64;100.00;99835.34;5118619;28;20031;-69
2023/01/08 05:18:10;;;;;;;18.65;6.65;;;;;;;9.55;100.00;99832.06;5139069;27;20031;-70
2023/01/08 05:20:35;;;;;;;22.90;6.78;;;;;;;9.63;100.00;99839.03;5128508;27;20027;-70
2023/01/08 05:23:01;;;;;;;20.40;7.65;;;;;;;9.62;100.00;99823.97;5111939;27;20027;-70
2023/01/08 05:25:27;;;;;;;20.00;7.28;;;;;;;9.58;100.00;99823.59;5119151;28;20103;-70
2023/01/08 05:27:52;;;;;;;20.77;7.63;;;;;;;9.54;100.00;99821.56;5116065;27;20084;-71
2023/01/08 05:30:17;;;;;;;20.60;7.78;;;;;;;9.38;100.00;99779.94;5111336;28;20119;-71
2023/01/08 05:32:43;;;;;;;17.63;7.82;;;;;;;9.53;100.00;99809.16;5122040;27;20039;-70
2023/01/08 05:35:09;;;;;;;18.17;7.93;;;;;;;9.57;100.00;99821.09;5128023;27;20030;-70
2023/01/08 05:37:36;;;;;;;27.92;8.93;;;;;;;9.44;100.00;99810.44;5136556;27;20027;-70
2023/01/08 05:40:02;;;;;;;22.25;8.18;;;;;;;9.43;100.00;99817.69;5116605;27;20031;-70
2023/01/08 05:42:27;;;;;;;24.65;8.25;;;;;;;9.30;100.00;99793.59;5110405;28;20028;-70
2023/01/08 05:44:52;;;;;;;26.13;9.10;;;;;;;9.22;100.00;99808.09;5087710;27;20504;-70
2023/01/08 05:47:18;;;;;;;26.02;8.73;;;;;;;9.33;100.00;99818.16;5110755;27;20042;-70
2023/01/08 05:49:43;;;;;;;24.90;8.43;;;;;;;9.32;100.00;99813.00;5117553;28;20031;-70
2023/01/08 05:52:09;;;;;;;29.05;8.30;;;;;;;9.23;100.00;99804.38;5136059;27;20031;-70
2023/01/08 05:54:34;;;;;;;31.42;9.48;;;;;;;9.12;100.00;99786.28;5109905;28;20095;-70
2023/01/08 05:57:02;;;;;;;25.10;8.40;;;;;;;9.23;100.00;99803.56;5104803;28;20090;-70
2023/01/08 05:59:27;;;;;;;28.98;8.25;;;;;;;9.20;100.00;99806.66;5095173;27;20039;-71
2023/01/08 06:01:53;;;;;;;23.88;8.48;;;;;;;9.18;100.00;99807.72;5097239;28;20032;-71
2023/01/08 06:04:18;;;;;;;24.85;8.82;;;;;;;9.26;100.00;99808.50;5135946;27;20055;-71
2023/01/08 06:06:43;;;;;;;23.63;8.63;;;;;;;9.10;100.00;99799.06;5090622;27;20564;-71
2023/01/08 06:09:09;;;;;;;24.15;8.38;;;;;;;9.24;100.00;99803.34;5100685;28;20036;-71
2023/01/08 06:11:34;;;;;;;24.77;8.80;;;;;;;9.08;100.00;99790.44;5114722;27;20084;-70
2023/01/08 06:14:00;;;;;;;28.15;9.10;;;;;;;9.10;100.00;99777.59;5114235;28;20020;-70
2023/01/08 06:16:25;;;;;;;22.08;9.05;;;;;;;9.36;100.00;99815.03;5138762;27;20033;-70
2023/01/08 06:18:51;;;;;;;23.30;8.57;;;;;;;9.18;100.00;99793.47;5127025;27;20612;-71
2023/01/08 06:21:16;;;;;;;23.08;8.80;;;;;;;9.37;100.00;99803.28;5108967;27;20072;-71
2023/01/08 06:23:42;;;;;;;22.83;8.77;;;;;;;9.24;100.00;99791.75;5117019;28;20442;-70
2023/01/08 06:26:07;;;;;;;23.45;8.95;;;;;;;9.36;100.00;99823.09;5117888;27;20110;-70
2023/01/08 06:28:34;;;;;;;27.10;9.00;;;;;;;9.31;100.00;99814.88;5126368;27;20418;-70
2023/01/08 06:31:00;;;;;;;25.17;8.60;;;;;;;9.11;100.00;99808.78;5138226;27;20326;-70
2023/01/08 06:33:26;;;;;;;23.95;8.73;;;;;;;9.18;100.00;99806.88;5110399;27;20031;-71
2023/01/08 06:35:51;;;;;;;27.05;8.85;;;;;;;9.22;100.00;99810.78;5132143;27;20058;-70
2023/01/08 06:38:20;;;;;;;29.67;9.38;;;;;;;9.17;100.00;99811.44;5100068;27;20033;-70
2023/01/08 06:40:48;;;;;;;26.10;9.05;;;;;;;9.15;100.00;99802.75;5108128;28;20531;-70
2023/01/08 06:43:14;;;;;;;25.38;9.50;;;;;;;9.16;100.00;99798.22;5130204;27;20057;-70
2023/01/08 06:45:40;;;;;;;30.30;9.13;;;;;;;9.25;100.00;99806.84;5118254;28;20055;-75
2023/01/08 06:48:06;;;;;;;23.73;9.75;;;;;;;9.17;100.00;99786.44;5117270;27;20119;-72
2023/01/08 06:50:33;;;;;;;28.83;9.73;;;;;;;9.26;100.00;99808.50;5110322;28;20028;-70
2023/01/08 06:52:58;;;;;;;22.73;9.20;;;;;;;9.15;100.00;99791.22;5107668;27;20031;-70
2023/01/08 06:55:25;;;;;;;31.15;9.77;;;;;;;9.33;100.00;99804.72;5110119;27;20042;-70
2023/01/08 06:57:54;;;;;;;29.45;9.98;;;;;;;9.36;100.00;99808.84;5129149;27;20024;-70
2023/01/08 07:00:22;;;;;;;34.63;10.35;;;;;;;9.34;100.00;99808.25;5133051;27;20389;-70
2023/01/08 07:02:48;;;;;;;32.92;10.15;;;;;;;9.34;100.00;99805.56;5103269;28;20066;-70
2023/01/08 07:05:13;;;;;;;23.73;10.05;;;;;;;9.22;100.00;99797.38;5134209;27;20051;-70
2023/01/08 07:07:39;;;;;;;28.75;10.32;;;;;;;9.31;100.00;99806.00;5109009;27;20038;-70
2023/01/08 07:10:04;;;;;;;21.60;9.90;;;;;;;9.21;100.00;99801.09;5109025;28;20367;-69
2023/01/08 07:12:30;;;;;;;34.75;10.82;;;;;;;9.30;100.00;99813.19;5115892;27;20034;-70
2023/01/08 07:14:55;;;;;;;28.20;10.65;;;;;;;9.17;100.00;99787.28;5105212;27;20031;-70
2023/01/08 07:17:20;;;;;;;27.52;10.18;;;;;;;9.23;100.00;99796.31;5114867;28;20103;-70
2023/01/08 07:19:46;;;;;;;30.17;10.43;;;;;;;9.21;100.00;99800.28;5128443;27;20104;-70
2023/01/08 07:22:11;;;;;;;34.20;10.90;;;;;;;9.21;100.00;99806.47;5126513;27;20039;-70
2023/01/08 07:24:37;;;;;;;39.20;10.32;;;;;;;9.33;100.00;99811.97;5118118;27;20080;-70
2023/01/08 07:27:02;;;;;;;32.80;10.13;;;;;;;9.13;100.00;99771.81;5102269;28;20031;-70
2023/01/08 07:29:28;;;;;;;30.48;10.18;;;;;;;9.32;100.00;99823.75;5125260;27;20034;-70
2023/01/08 07:31:53;;;;;;;31.60;9.80;;;;;;;9.22;100.00;99818.84;5110906;28;20032;-71
2023/01/08 07:34:18;;;;;;;37.17;9.75;;;;;;;9.03;100.00;99782.19;5114502;27;20057;-70
2023/01/08 07:36:44;;;;;;;28.10;9.90;;;;;;;9.22;100.00;99813.47;5104742;27;20035;-70
2023/01/08 07:39:09;;;;;;;31.00;9.05;;;;;;;9.25;100.00;99810.34;5136340;27;20036;-69
2023/01/08 07:41:35;;;;;;;31.00;9.88;;;;;;;9.20;100.00;99796.75;5127164;27;20023;-68
2023/01/08 07:44:00;;;;;;;30.08;9.93;;;;;;;9.16;100.00;99807.09;5089076;28;20483;-72
2023/01/08 07:46:26;;;;;;;29.13;10.38;;;;;;;9.03;100.00;99782.19;5113822;27;20481;-69
2023/01/08 07:48:51;;;;;;;29.40;8.68;;;;;;;9.00;100.00;99788.78;5137425;27;20041;-71
2023/01/08 07:51:17;;;;;;;27.00;10.32;;;;;;;9.14;100.00;99813.72;5107968;27;20035;-69
2023/01/08 07:53:42;;;;;;;33.72;10.50;;;;;;;9.01;100.00;99795.00;5129944;27;20032;-68
2023/01/08 07:56:09;;;;;;;30.58;11.05;;;;;;;9.21;100.00;99822.56;5112134;27;20039;-68
2023/01/08 07:58:36;;;;;;;36.50;10.95;;;;;;;9.02;100.00;99794.78;5104581;28;20054;-69
2023/01/08 08:01:03;;;;;;;32.90;10.75;;;;;;;9.18;100.00;99814.94;5102851;27;20034;-68
2023/01/08 08:03:28;;;;;;;29.38;11.18;;;;;;;9.09;100.00;99797.44;5112370;28;20157;-67
2023/01/08 08:05:53;;;;;;;31.13;11.10;;;;;;;9.24;100.00;99816.78;5128460;27;20106;-66
2023/01/08 08:08:19;;;;;;;27.85;11.05;;;;;;;9.26;100.00;99817.38;5125931;27;20088;-69
2023/01/08 08:10:45;;;;;;;33.53;11.65;;;;;;;9.22;100.00;99816.16;5136811;27;20059;-68
2023/01/08 08:13:11;;;;;;;34.17;11.07;;;;;;;9.22;100.00;99826.88;5104736;27;20035;-69
2023/01/08 08:15:38;;;;;;;30.35;11.35;;;;;;;9.23;100.00;99825.03;5113281;28;20043;-69
2023/01/08 08:18:04;;;;;;;32.90;10.80;;;;;;;9.21;100.00;99822.56;5129877;28;20057;-69
2023/01/08 08:20:30;;;;;;;30.30;11.35;;;;;;;9.18;100.00;99813.06;5123190;28;20031;-69
2023/01/08 08:23:11;;;;;;;34.85;12.10;;;;;;;9.27;100.00;99818.19;5115849;28;20035;-69
2023/01/08 08:25:37;;;;;;;38.92;11.38;;;;;;;9.20;100.00;99815.53;5125920;28;20027;-69
2023/01/08 08:28:03;;;;;;;31.83;10.90;;;;;;;9.30;100.00;99829.31;5108306;28;20029;-68
2023/01/08 08:30:31;;;;;;;24.25;10.10;;;;;;;9.25;100.00;99831.84;5132861;28;20031;-71
2023/01/08 08:33:01;;;;;;;31.92;11.15;;;;;;;9.17;100.00;99832.06;5085932;28;20043;-67
2023/01/08 08:35:27;;;;;;;28.00;10.35;;;;;;;9.20;100.00;99820.91;5131240;28;20023;-66
2023/01/08 08:37:53;;;;;;;39.65;11.80;;;;;;;9.00;100.00;99804.06;5128381;28;20027;-67
2023/01/08 08:40:19;;;;;;;34.88;11.23;;;;;;;9.17;100.00;99830.22;5101206;28;20039;-68
2023/01/08 08:42:44;;;;;;;37.30;10.93;;;;;;;9.14;100.00;99841.38;5100237;28;20043;-69
2023/01/08 08:45:10;;;;;;;30.55;10.68;;;;;;;9.08;100.00;99825.31;5117357;28;20043;-68
2023/01/08 08:47:35;;;;;;;38.97;11.32;;;;;;;9.12;100.00;99827.34;5108007;28;20490;-70
2023/01/08 08:50:01;;;;;;;28.08;10.40;;;;;;;9.11;100.00;99817.66;5124709;28;20458;-66
2023/01/08 08:52:28;;;;;;;28.05;10.00;;;;;;;9.14;100.00;99824.47;5089771;28;20028;-66
2023/01/08 08:54:53;;;;;;;29.48;10.27;;;;;;;9.24;100.00;99832.88;5135823;28;20047;-68
2023/01/08 08:57:19;;;;;;;28.15;10.82;;;;;;;9.28;100.00;99820.66;5132927;28;20347;-68
2023/01/08 08:59:44;;;;;;;28.83;10.20;;;;;;;9.17;100.00;99830.22;5076456;28;20035;-69
2023/01/08 09:02:10;;;;;;;31.90;10.50;;;;;;;9.19;100.00;99811.22;5106758;28;20024;-75
2023/01/08 09:04:36;;;;;;;27.70;10.30;;;;;;;9.25;100.00;99813.03;5133001;28;20031;-73
2023/01/08 09:07:01;;;;;;;26.55;10.32;;;;;;;9.27;100.00;99815.50;5120667;28;20035;-68
2023/01/08 09:09:27;;;;;;;29.48;11.00;;;;;;;9.33;100.00;99817.31;5118388;28;20023;-68
2023/01/08 09:11:53;;;;;;;25.35;10.40;;;;;;;9.26;100.00;99819.22;5108558;28;20118;-68
2023/01/08 09:14:19;;;;;;;25.10;9.68;;;;;;;9.23;100.00;99812.41;5100358;28;20680;-67
2023/01/08 09:16:45;;;;;;;30.40;10.23;;;;;;;9.22;100.00;99824.19;5088647;28;20031;-69
2023/01/08 09:19:10;;;;;;;31.83;10.88;;;;;;;9.32;100.00;99819.19;5124901;28;20027;-69
2023/01/08 09:21:35;;;;;;;27.67;10.55;;;;;;;9.27;100.00;99820.88;5105644;28;20023;-71
2023/01/08 09:24:01;;;;;;;26.58;9.75;;;;;;;9.26;100.00;99813.84;5121600;28;20078;-69
2023/01/08 09:26:28;;;;;;;28.17;9.75;;;;;;;9.33;100.00;99810.09;5104459;28;20404;-69
2023/01/08 09:28:54;;;;;;;27.48;9.68;;;;;;;9.26;100.00;99817.38;5101788;27;20094;-67
2023/01/08 09:31:20;;;;;;;37.05;10.95;;;;;;;9.27;100.00;99818.19;5123822;27;20050;-67
2023/01/08 09:33:49;;;;;;;31.38;10.90;;;;;;;9.32;100.00;99821.88;5095467;28;20027;-68
2023/01/08 09:36:15;;;;;;;36.88;9.98;;;;;;;9.27;100.00;99827.09;5134448;27;20035;-67
2023/01/08 09:38:42;;;;;;;26.60;9.88;;;;;;;9.16;100.00;99798.22;5125666;27;20156;-67
2023/01/08 09:41:30;;;;;;;30.55;9.82;;;;;;;9.31;100.00;99825.59;5104183;28;20636;-67
2023/01/08 09:43:58;;;;;;;32.38;12.52;;;;;;;9.28;100.00;99831.41;5113526;27;20530;-66
2023/01/08 09:46:27;;;;;;;32.08;10.68;;;;;;;9.18;100.00;99831.03;5128560;27;20042;-67
2023/01/08 09:48:55;;;;;;;28.45;10.10;;;;;;;9.17;100.00;99834.75;5120483;27;20049;-66
2023/01/08 09:51:22;;;;;;;37.35;10.65;;;;;;;9.14;100.00;99832.50;5127525;27;20027;-80
2023/01/08 09:53:53;;;;;;;32.60;10.75;;;;;;;9.08;100.00;99806.53;5113901;28;20088;-68
2023/01/08 09:56:19;;;;;;;34.10;10.27;;;;;;;9.25;100.00;99834.50;5116124;27;20493;-68
2023/01/08 09:58:51;;;;;;;32.83;10.80;;;;;;;9.20;100.00;99831.63;5104072;27;20035;-70
2023/01/08 10:01:20;;;;;;;31.30;10.32;;;;;;;9.14;100.00;99844.06;5137787;27;20106;-68
2023/01/08 10:03:50;;;;;;;42.70;10.68;;;;;;;9.22;100.00;99834.94;5120895;28;20050;-68
2023/01/08 10:06:16;;;;;;;27.40;10.40;;;;;;;9.22;100.00;99837.63;5134239;27;20035;-67
2023/01/08 10:08:43;;;;;;;36.00;11.02;;;;;;;9.25;100.00;99839.06;5122842;27;20043;-67
2023/01/08 10:11:12;;;;;;;31.73;10.50;;;;;;;9.24;100.00;99832.88;5137968;27;20062;-67
2023/01/08 10:13:40;;;;;;;32.95;10.10;;;;;;;9.15;100.00;99818.88;5110651;27;20068;-69
2023/01/08 10:16:09;;;;;;;27.75;10.48;;;;;;;9.24;100.00;99827.50;5111199;28;20027;-67
2023/01/08 10:18:36;;;;;;;23.40;10.80;;;;;;;9.15;100.00;99821.56;5120888;28;20075;-67
2023/01/08 10:21:01;;;;;;;26.02;10.68;;;;;;;9.00;100.00;99804.06;5138215;27;20034;-68
2023/01/08 10:23:29;;;;;;;27.15;10.60;;;;;;;9.12;100.00;99803.19;5108778;27;20050;-66
2023/01/08 10:25:58;;;;;;;27.63;10.57;;;;;;;9.10;100.00;99796.38;5112899;28;20027;-67
2023/01/08 10:28:34;;;;;;;25.40;10.45;;;;;;;9.21;100.00;99814.50;5133886;27;20031;-67
2023/01/08 10:31:14;;;;;;;24.83;10.25;;;;;;;9.26;100.00;99829.97;5123334;27;20034;-72
2023/01/08 10:33:42;;;;;;;27.98;10.18;;;;;;;9.29;100.00;99824.16;5113765;28;20035;-67
2023/01/08 10:36:10;;;;;;;29.30;11.13;;;;;;;9.32;100.00;99829.09;5113113;27;20031;-67
2023/01/08 10:38:41;;;;;;;25.17;10.45;;;;;;;9.34;100.00;99832.41;5106650;28;20031;-67
2023/01/08 10:41:12;;;;;;;27.80;10.30;;;;;;;9.48;100.00;99833.97;5136731;27;20039;-71
2023/01/08 10:44:04;;;;;;;27.90;10.77;;;;;;;9.52;100.00;99837.88;5108867;27;20653;-70
2023/01/08 10:46:52;;;;;;;23.48;10.65;;;;;;;9.46;100.00;99819.13;5106817;28;20027;-68
2023/01/08 10:49:32;;;;;;;26.10;10.15;;;;;;;9.48;100.00;99825.09;5108815;27;20110;-67
2023/01/08 10:51:59;;;;;;;26.95;11.40;;;;;;;9.53;100.00;99815.34;5129993;27;20035;-67
2023/01/08 10:54:33;;;;;;;21.83;10.07;;;;;;;9.44;100.00;99779.06;5133433;27;20062;-67
2023/01/08 10:56:59;;;;;;;24.73;10.65;;;;;;;9.58;100.00;99804.78;5123289;27;20062;-69
2023/01/08 10:59:25;;;;;;;25.00;11.23;;;;;;;9.58;100.00;99796.72;5133992;27;20031;-71
2023/01/08 11:01:56;;;;;;;25.27;10.50;;;;;;;9.55;100.00;99796.34;5128940;27;20019;-67
2023/01/08 11:04:34;;;;;;;28.45;10.77;;;;;;;9.62;100.00;99797.94;5127058;27;20040;-67
2023/01/08 11:07:19;;;;;;;24.92;10.57;;;;;;;9.54;100.00;99800.06;5137859;27;20039;-66
2023/01/08 11:09:48;;;;;;;25.58;10.88;;;;;;;9.53;100.00;99795.72;5128557;27;20037;-66
2023/01/08 11:12:40;;;;;;;23.60;9.75;;;;;;;9.44;100.00;99781.75;5128212;27;20039;-68
2023/01/08 11:15:33;;;;;;;28.67;10.68;;;;;;;9.60;100.00;99794.66;5117658;28;20047;-72
2023/01/08 11:18:06;;;;;;;27.15;10.55;;;;;;;9.62;100.00;99789.06;5116332;27;20107;-67
2023/01/08 11:20:32;;;;;;;25.95;11.43;;;;;;;9.65;100.00;99784.06;5123536;27;20031;-67